Time;durP1;ratioP1;P1;durP2;ratioP2;P2;SDS_P1;SDS_P2;PMS_P1;PMS_P2;Temp;Humidity;BMP_temperature;BMP_pressure;BME280_temperature;BME280_humidity;BME280_pressure;Samples;Min_cycle;Max_cycle;Signal;HPM_P1;HPM_P2
2022/06/04 00:00:30;;;;;;;5.18;4.30;;;19.00;65.90;;;;;;6214009;23;20196;-87
2022/06/04 00:02:56;;;;;;;5.13;3.80;;;18.90;65.80;;;;;;6219255;23;20231;-87
2022/06/04 00:05:25;;;;;;;6.28;3.70;;;19.00;65.90;;;;;;6169516;23;20145;-86
2022/06/04 00:07:51;;;;;;;5.55;3.85;;;19.00;65.90;;;;;;6194845;23;20165;-86
2022/06/04 00:15:43;;;;;;;5.15;4.00;;;19.00;65.90;;;;;;6222645;23;20140;-86
2022/06/04 00:18:09;;;;;;;5.28;3.83;;;19.00;65.90;;;;;;6246062;23;20158;-86
2022/06/04 00:20:34;;;;;;;4.82;3.70;;;19.00;65.90;;;;;;6194622;23;20209;-87
2022/06/04 00:23:01;;;;;;;5.25;3.92;;;18.90;65.90;;;;;;6169916;23;20149;-86
2022/06/04 00:25:27;;;;;;;5.00;3.55;;;18.90;65.90;;;;;;6170073;23;20187;-86
2022/06/04 00:27:56;;;;;;;4.70;3.70;;;19.00;65.90;;;;;;6169954;23;20168;-86
2022/06/04 00:30:22;;;;;;;5.05;3.95;;;19.00;65.90;;;;;;6219284;23;20196;-86
2022/06/04 00:32:47;;;;;;;6.15;4.47;;;19.00;65.80;;;;;;6194794;23;20627;-86
2022/06/04 00:35:13;;;;;;;4.97;4.00;;;19.00;65.90;;;;;;6194247;23;20141;-86
2022/06/04 00:37:39;;;;;;;5.53;3.70;;;18.90;65.80;;;;;;6219296;23;20580;-86
2022/06/04 00:40:06;;;;;;;4.97;4.00;;;18.90;65.90;;;;;;6194464;23;20141;-86
2022/06/04 00:42:32;;;;;;;5.05;4.20;;;18.90;65.90;;;;;;6166819;23;20196;-87
2022/06/04 00:45:28;;;;;;;5.63;4.00;;;18.90;65.90;;;;;;6164272;23;20528;-86
2022/06/04 00:47:54;;;;;;;5.40;4.35;;;18.90;65.90;;;;;;6223670;23;20161;-87
2022/06/04 00:50:20;;;;;;;5.40;3.95;;;18.90;66.00;;;;;;6221023;23;20136;-86
2022/06/04 00:52:48;;;;;;;6.05;4.20;;;18.90;66.00;;;;;;6167012;23;20173;-86
2022/06/04 00:55:13;;;;;;;5.75;4.10;;;19.00;66.00;;;;;;6196088;23;20542;-86
2022/06/04 00:58:04;;;;;;;4.68;3.95;;;18.90;65.90;;;;;;6196046;23;20129;-86
2022/06/04 01:00:35;;;;;;;5.68;3.95;;;18.90;66.00;;;;;;6201346;23;20186;-87
2022/06/04 01:03:23;;;;;;;4.97;4.00;;;18.90;66.10;;;;;;6195701;23;20188;-86
2022/06/04 01:06:01;;;;;;;5.47;3.83;;;18.80;66.00;;;;;;6221511;23;20145;-86
2022/06/04 01:08:46;;;;;;;6.60;3.88;;;18.90;66.10;;;;;;6196530;23;20169;-86
2022/06/04 01:11:19;;;;;;;5.35;4.00;;;18.90;66.00;;;;;;6220953;23;20122;-86
2022/06/04 01:13:59;;;;;;;4.88;3.80;;;18.90;66.00;;;;;;6221126;23;20134;-86
2022/06/04 01:16:50;;;;;;;4.28;3.58;;;18.90;66.00;;;;;;6196074;23;20149;-87
2022/06/04 01:19:40;;;;;;;5.40;4.10;;;18.90;66.00;;;;;;6195918;23;20149;-87
2022/06/04 01:22:20;;;;;;;5.20;3.70;;;18.90;66.00;;;;;;6225597;23;20133;-86
2022/06/04 01:24:56;;;;;;;5.47;4.03;;;18.90;66.00;;;;;;6198024;23;20173;-87
2022/06/04 01:27:27;;;;;;;4.82;4.10;;;18.90;66.00;;;;;;6173100;23;20173;-86
2022/06/04 01:30:05;;;;;;;4.63;3.70;;;18.90;66.10;;;;;;6172521;23;20196;-87
2022/06/04 01:32:38;;;;;;;5.55;3.92;;;18.90;66.10;;;;;;6197428;23;20236;-86
2022/06/04 01:35:23;;;;;;;6.20;4.35;;;18.90;65.90;;;;;;6196702;23;20579;-86
2022/06/04 01:37:55;;;;;;;5.85;4.10;;;18.90;66.00;;;;;;6173041;23;20171;-86
2022/06/04 01:43:08;;;;;;;4.88;3.60;;;18.90;66.00;;;;;;6203934;23;20141;-86
2022/06/04 01:45:34;;;;;;;5.15;4.15;;;18.90;66.00;;;;;;6195956;23;20137;-87
2022/06/04 01:48:00;;;;;;;5.05;4.07;;;18.90;66.00;;;;;;6220632;23;20162;-86
2022/06/04 01:50:30;;;;;;;5.72;4.13;;;18.90;66.00;;;;;;6171227;23;20177;-87
2022/06/04 01:52:57;;;;;;;5.53;4.15;;;18.90;66.00;;;;;;6171004;23;20592;-87
2022/06/04 01:55:29;;;;;;;5.57;4.15;;;18.90;66.00;;;;;;6195886;23;20152;-87
2022/06/04 01:58:00;;;;;;;5.45;3.80;;;18.90;66.00;;;;;;6221843;23;20138;-87
2022/06/04 02:00:32;;;;;;;5.07;4.00;;;18.90;65.90;;;;;;6171384;23;20145;-87
2022/06/04 02:03:04;;;;;;;5.05;4.07;;;18.90;66.00;;;;;;6196285;23;20212;-87
2022/06/04 02:05:50;;;;;;;5.07;4.10;;;18.90;66.00;;;;;;6172116;23;20228;-86
2022/06/04 02:08:19;;;;;;;5.00;3.95;;;18.90;66.10;;;;;;6174621;23;20184;-86
2022/06/04 02:10:49;;;;;;;5.63;4.00;;;18.90;66.20;;;;;;6170983;23;20134;-86
2022/06/04 02:13:15;;;;;;;5.15;3.88;;;18.80;66.10;;;;;;6196015;23;20580;-86
2022/06/04 02:15:50;;;;;;;5.22;3.92;;;18.90;66.10;;;;;;6170769;23;20580;-86
2022/06/04 02:18:15;;;;;;;5.93;4.40;;;18.90;66.00;;;;;;6171968;23;20144;-86
2022/06/04 02:20:41;;;;;;;5.40;4.10;;;18.90;66.10;;;;;;6220452;23;20144;-86
2022/06/04 02:23:07;;;;;;;5.15;3.80;;;18.90;66.10;;;;;;6195223;23;20146;-87
2022/06/04 02:25:32;;;;;;;5.38;3.90;;;18.80;66.10;;;;;;6171430;23;20138;-87
2022/06/04 02:27:58;;;;;;;4.97;4.10;;;18.90;66.10;;;;;;6170378;23;20181;-86
2022/06/04 02:30:27;;;;;;;5.07;3.97;;;18.90;66.10;;;;;;6195314;23;20491;-86
2022/06/04 02:33:01;;;;;;;5.57;4.30;;;18.90;66.10;;;;;;6171314;23;20138;-87
2022/06/04 02:35:33;;;;;;;5.57;3.70;;;18.90;66.10;;;;;;6171219;23;20181;-87
2022/06/04 02:38:04;;;;;;;5.00;3.88;;;18.80;66.00;;;;;;6170996;23;20141;-87
2022/06/04 02:40:41;;;;;;;5.80;4.10;;;18.90;66.10;;;;;;6221173;23;20134;-87
2022/06/04 02:43:18;;;;;;;5.32;4.22;;;18.90;66.20;;;;;;6172365;23;20156;-87
2022/06/04 02:46:11;;;;;;;4.88;3.72;;;18.90;66.20;;;;;;6195032;23;20148;-87
2022/06/04 02:48:39;;;;;;;5.57;4.07;;;18.90;67.00;;;;;;6171754;23;20241;-87
2022/06/04 02:51:10;;;;;;;5.03;4.00;;;18.80;66.10;;;;;;6170356;23;20142;-87
2022/06/04 02:53:36;;;;;;;5.25;4.00;;;18.90;66.10;;;;;;6171330;23;20157;-86
2022/06/04 02:56:07;;;;;;;4.90;3.92;;;18.90;66.10;;;;;;6170505;23;20141;-86
2022/06/04 02:58:32;;;;;;;5.50;4.20;;;18.90;66.10;;;;;;6220718;23;20434;-87
2022/06/04 03:00:58;;;;;;;5.13;3.88;;;18.90;66.10;;;;;;6247289;23;20141;-86
2022/06/04 03:03:24;;;;;;;4.85;3.85;;;18.90;66.10;;;;;;6219620;23;20189;-87
2022/06/04 03:05:53;;;;;;;5.55;4.28;;;18.90;66.10;;;;;;6195029;23;20215;-87
2022/06/04 03:08:19;;;;;;;4.80;3.83;;;18.90;66.10;;;;;;6170365;23;20181;-87
2022/06/04 03:10:44;;;;;;;5.00;4.03;;;18.90;66.00;;;;;;6194511;23;20146;-87
2022/06/04 03:13:10;;;;;;;4.90;4.10;;;18.90;66.00;;;;;;6170024;23;20134;-86
2022/06/04 03:15:36;;;;;;;5.18;4.10;;;18.90;66.00;;;;;;6220044;23;20140;-86
2022/06/04 03:18:01;;;;;;;4.95;3.83;;;18.80;66.00;;;;;;6195024;23;20142;-86
2022/06/04 03:20:27;;;;;;;4.18;3.50;;;18.80;66.10;;;;;;6194786;23;20176;-87
2022/06/04 03:22:53;;;;;;;5.68;4.15;;;18.80;66.00;;;;;;6194778;23;20195;-87
2022/06/04 03:25:19;;;;;;;5.18;3.95;;;18.80;66.10;;;;;;6194941;23;20145;-87
2022/06/04 03:27:45;;;;;;;5.15;4.32;;;18.90;66.20;;;;;;6194855;23;20161;-86
2022/06/04 03:30:11;;;;;;;5.95;4.13;;;18.80;66.10;;;;;;6170099;23;20580;-87
2022/06/04 03:32:37;;;;;;;6.60;4.20;;;18.90;66.30;;;;;;6170084;23;20224;-86
2022/06/04 03:35:04;;;;;;;5.25;4.13;;;18.80;66.10;;;;;;6194893;23;20157;-86
2022/06/04 03:37:29;;;;;;;5.65;3.95;;;18.80;66.10;;;;;;6219680;23;20238;-87
2022/06/04 03:39:55;;;;;;;5.15;3.95;;;18.80;66.10;;;;;;6170169;23;20147;-87
2022/06/04 03:42:21;;;;;;;4.90;4.00;;;18.80;66.10;;;;;;6219894;23;20565;-87
2022/06/04 03:44:47;;;;;;;5.15;4.03;;;18.80;66.20;;;;;;6220131;23;20134;-86
2022/06/04 03:47:16;;;;;;;5.03;3.85;;;18.80;66.10;;;;;;6195049;23;20244;-87
2022/06/04 03:49:42;;;;;;;6.00;3.65;;;18.80;66.10;;;;;;6170829;23;20160;-87
2022/06/04 03:52:10;;;;;;;4.82;3.90;;;18.80;66.10;;;;;;6169874;23;20145;-87
2022/06/04 03:59:56;;;;;;;4.97;3.72;;;18.80;66.20;;;;;;6222665;23;20574;-87
2022/06/04 04:02:22;;;;;;;5.28;3.92;;;18.80;66.20;;;;;;6194201;23;20145;-86
2022/06/04 04:04:48;;;;;;;4.90;4.03;;;18.70;66.20;;;;;;6169360;23;20488;-86
2022/06/04 04:07:14;;;;;;;4.95;3.83;;;18.80;66.20;;;;;;6194019;23;20185;-86
2022/06/04 04:09:40;;;;;;;4.85;3.83;;;18.80;66.20;;;;;;6169603;23;20581;-87
2022/06/04 04:12:06;;;;;;;5.45;3.90;;;18.80;66.30;;;;;;6169706;23;20160;-86
2022/06/04 04:14:32;;;;;;;6.25;4.10;;;18.80;66.30;;;;;;6169580;23;20142;-86
2022/06/04 04:16:57;;;;;;;6.68;4.10;;;18.80;66.30;;;;;;6169341;23;20207;-87
2022/06/04 04:19:26;;;;;;;4.50;3.53;;;18.80;66.30;;;;;;6194362;23;20138;-87
2022/06/04 04:21:51;;;;;;;5.53;4.22;;;18.80;66.30;;;;;;6194790;23;20150;-87
2022/06/04 04:24:17;;;;;;;4.88;3.78;;;18.80;66.30;;;;;;6194033;23;20581;-86
2022/06/04 04:26:44;;;;;;;4.57;3.50;;;18.80;66.30;;;;;;6194950;23;20165;-86
2022/06/04 04:29:10;;;;;;;5.75;4.50;;;18.80;66.40;;;;;;6194638;23;20134;-87
2022/06/04 04:31:37;;;;;;;4.95;3.97;;;18.80;66.30;;;;;;6219160;23;20164;-87
2022/06/04 04:34:03;;;;;;;5.57;4.13;;;18.80;66.40;;;;;;6194401;23;20241;-87
2022/06/04 04:36:30;;;;;;;5.55;3.90;;;18.80;66.30;;;;;;6170465;23;20172;-87
2022/06/04 04:38:57;;;;;;;5.15;3.88;;;18.70;66.30;;;;;;6169676;23;20244;-87
2022/06/04 04:41:23;;;;;;;4.80;3.72;;;18.70;66.30;;;;;;6169374;23;20232;-86
2022/06/04 04:43:49;;;;;;;5.65;3.75;;;18.80;66.40;;;;;;6169886;23;20604;-87
2022/06/04 04:46:15;;;;;;;4.97;3.90;;;18.70;66.30;;;;;;6169318;23;20149;-87
2022/06/04 04:48:41;;;;;;;6.18;3.85;;;18.80;66.30;;;;;;6194172;23;20141;-86
2022/06/04 04:51:09;;;;;;;5.40;3.78;;;18.80;66.40;;;;;;6194340;23;20169;-87
2022/06/04 04:53:35;;;;;;;5.40;3.72;;;18.80;66.30;;;;;;6170284;23;20148;-86
2022/06/04 04:56:01;;;;;;;5.15;3.80;;;18.80;66.30;;;;;;6194015;23;20141;-87
2022/06/04 04:58:26;;;;;;;5.10;3.80;;;18.80;66.30;;;;;;6194119;23;20157;-86
2022/06/04 05:00:52;;;;;;;4.72;3.50;;;18.70;66.30;;;;;;6194422;23;20191;-86
2022/06/04 05:03:18;;;;;;;4.85;3.90;;;18.70;66.40;;;;;;6169073;23;20193;-87
2022/06/04 05:05:44;;;;;;;5.10;3.90;;;18.80;66.40;;;;;;6169182;23;20227;-86
2022/06/04 05:08:09;;;;;;;5.57;3.88;;;18.80;66.40;;;;;;6169100;23;20678;-87
2022/06/04 05:10:35;;;;;;;5.22;3.33;;;18.70;66.30;;;;;;6194384;23;20133;-86
2022/06/04 05:13:01;;;;;;;5.57;4.13;;;18.70;66.30;;;;;;6169981;23;20569;-87
2022/06/04 05:15:26;;;;;;;5.35;3.90;;;18.80;66.40;;;;;;6194250;23;20160;-86
2022/06/04 05:17:52;;;;;;;5.10;3.97;;;18.70;66.40;;;;;;6194288;23;20245;-87
2022/06/04 05:20:18;;;;;;;4.63;3.83;;;18.70;66.30;;;;;;6169305;23;20172;-87
2022/06/04 05:22:44;;;;;;;4.40;3.55;;;18.80;66.30;;;;;;6169652;23;20173;-87
2022/06/04 05:25:10;;;;;;;5.32;3.92;;;18.80;66.30;;;;;;6194064;23;20134;-87
2022/06/04 05:27:35;;;;;;;4.50;3.80;;;18.70;66.30;;;;;;6194482;23;20161;-88
2022/06/04 05:30:01;;;;;;;5.63;4.03;;;18.70;66.30;;;;;;6219010;23;20177;-87
2022/06/04 05:32:27;;;;;;;5.82;4.35;;;18.70;66.30;;;;;;6194501;23;20136;-87
2022/06/04 05:34:52;;;;;;;5.15;4.13;;;18.80;66.30;;;;;;6220666;23;20137;-86
2022/06/04 05:37:18;;;;;;;5.13;4.03;;;18.80;66.30;;;;;;6220882;23;20138;-87
2022/06/04 05:39:44;;;;;;;4.90;4.10;;;18.70;66.20;;;;;;6170875;23;20141;-87
2022/06/04 05:42:10;;;;;;;4.55;3.45;;;18.70;66.30;;;;;;6220973;23;20129;-87
2022/06/04 05:44:36;;;;;;;4.63;3.65;;;18.80;66.30;;;;;;6170924;23;20219;-87
2022/06/04 05:47:04;;;;;;;4.50;3.72;;;18.80;66.30;;;;;;6170757;23;20176;-87
2022/06/04 05:49:30;;;;;;;4.82;3.90;;;18.80;66.30;;;;;;6197017;23;20130;-87
2022/06/04 05:51:55;;;;;;;5.10;3.88;;;18.80;66.30;;;;;;6171137;23;20229;-87
2022/06/04 05:54:21;;;;;;;5.78;3.95;;;18.70;66.30;;;;;;6195772;23;20642;-87
2022/06/04 05:56:48;;;;;;;5.32;4.03;;;18.70;66.30;;;;;;6195969;23;20679;-86
2022/06/04 05:59:15;;;;;;;5.13;4.13;;;18.80;66.30;;;;;;6195769;23;20211;-87
2022/06/04 06:01:42;;;;;;;4.85;3.83;;;18.80;66.30;;;;;;6195701;23;20137;-87
2022/06/04 06:04:09;;;;;;;5.35;4.30;;;18.80;66.10;;;;;;6170819;23;20275;-88
2022/06/04 06:06:39;;;;;;;4.72;3.90;;;18.80;66.00;;;;;;6195636;23;20169;-87
2022/06/04 06:09:06;;;;;;;4.53;3.67;;;18.90;65.90;;;;;;6171436;23;20229;-87
2022/06/04 06:11:31;;;;;;;5.30;4.10;;;18.90;65.80;;;;;;6170721;23;20173;-87
2022/06/04 06:13:57;;;;;;;5.15;3.88;;;18.90;65.60;;;;;;6170630;23;20579;-87
2022/06/04 06:16:25;;;;;;;5.38;3.70;;;18.90;65.60;;;;;;6171251;23;20146;-87
2022/06/04 06:18:51;;;;;;;4.38;3.70;;;18.90;65.50;;;;;;6196005;23;20512;-87
2022/06/04 06:21:20;;;;;;;5.10;3.90;;;18.90;65.60;;;;;;6170558;23;20508;-87
2022/06/04 06:23:46;;;;;;;5.85;3.88;;;19.00;65.70;;;;;;6195924;23;20183;-87
2022/06/04 06:26:13;;;;;;;4.93;3.80;;;18.90;65.60;;;;;;6170734;23;20142;-88
2022/06/04 06:28:39;;;;;;;4.72;3.80;;;19.00;65.60;;;;;;6170683;23;20148;-87
2022/06/04 06:31:06;;;;;;;4.75;3.92;;;19.00;65.60;;;;;;6170880;23;20146;-86
2022/06/04 06:33:31;;;;;;;4.95;3.65;;;19.00;65.70;;;;;;6220686;23;20180;-87
2022/06/04 06:35:58;;;;;;;4.47;3.60;;;18.90;65.60;;;;;;6170554;23;20150;-87
2022/06/04 06:38:24;;;;;;;4.40;3.72;;;18.90;65.60;;;;;;6171272;23;20145;-87
2022/06/04 06:40:52;;;;;;;4.32;3.55;;;18.90;65.60;;;;;;6195459;23;20141;-88
2022/06/04 06:43:18;;;;;;;5.97;4.05;;;18.90;65.60;;;;;;6195558;23;20156;-87
2022/06/04 06:45:44;;;;;;;4.32;3.72;;;19.00;65.50;;;;;;6169902;23;20152;-86
2022/06/04 06:48:17;;;;;;;5.15;4.00;;;19.00;65.40;;;;;;6195695;23;20244;-87
2022/06/04 06:50:43;;;;;;;4.60;3.70;;;19.00;65.40;;;;;;6220522;23;20134;-87
2022/06/04 06:53:09;;;;;;;4.88;3.78;;;18.90;65.50;;;;;;6195215;23;20137;-87
2022/06/04 06:55:35;;;;;;;3.92;3.53;;;19.00;65.50;;;;;;6220190;23;20141;-87
2022/06/04 06:58:01;;;;;;;4.93;3.72;;;18.90;65.40;;;;;;6195781;23;20133;-86
2022/06/04 07:00:27;;;;;;;4.40;3.60;;;18.90;65.50;;;;;;6170119;23;20146;-86
2022/06/04 07:02:53;;;;;;;4.43;3.60;;;18.90;65.50;;;;;;6169616;23;20192;-88
2022/06/04 07:05:18;;;;;;;5.05;3.97;;;18.90;65.50;;;;;;6170080;23;20157;-87
2022/06/04 07:07:44;;;;;;;4.32;3.50;;;18.90;65.40;;;;;;6170439;23;20177;-88
2022/06/04 07:10:10;;;;;;;6.93;4.07;;;19.00;65.20;;;;;;6195125;23;20479;-87
2022/06/04 07:12:35;;;;;;;4.03;3.50;;;19.00;65.20;;;;;;6170495;23;20153;-87
2022/06/04 07:15:01;;;;;;;4.30;3.63;;;19.10;65.10;;;;;;6169836;23;20587;-87
2022/06/04 07:17:28;;;;;;;4.40;4.00;;;19.10;65.10;;;;;;6170091;23;20268;-87
2022/06/04 07:19:54;;;;;;;3.92;3.40;;;19.10;65.00;;;;;;6220196;23;20130;-87
2022/06/04 07:22:20;;;;;;;4.95;4.00;;;19.00;65.00;;;;;;6170637;23;20145;-87
2022/06/04 07:24:45;;;;;;;4.55;3.55;;;19.10;64.90;;;;;;6195098;23;20163;-88
2022/06/04 07:27:11;;;;;;;4.13;3.17;;;19.10;64.90;;;;;;6194628;23;20177;-87
2022/06/04 07:29:37;;;;;;;4.30;3.70;;;19.10;64.90;;;;;;6195034;23;20145;-87
2022/06/04 07:32:04;;;;;;;4.65;3.50;;;19.10;64.90;;;;;;6169742;23;20180;-87
2022/06/04 07:34:29;;;;;;;4.63;3.40;;;19.10;64.90;;;;;;6195649;23;20138;-87
2022/06/04 07:36:55;;;;;;;4.30;3.38;;;19.10;64.80;;;;;;6195017;23;20487;-87
2022/06/04 07:39:21;;;;;;;3.65;3.22;;;19.10;65.00;;;;;;6170185;23;20480;-87
2022/06/04 07:41:51;;;;;;;4.32;3.63;;;19.10;64.90;;;;;;6219851;23;20133;-87
2022/06/04 07:44:17;;;;;;;4.78;3.35;;;19.10;65.00;;;;;;6195988;23;20130;-87
2022/06/04 07:46:44;;;;;;;4.35;3.60;;;19.10;64.90;;;;;;6169613;23;20195;-87
2022/06/04 07:49:11;;;;;;;4.90;3.70;;;19.20;64.70;;;;;;6219720;23;20130;-88
2022/06/04 07:51:37;;;;;;;4.15;3.75;;;19.10;64.60;;;;;;6170353;23;20228;-87
2022/06/04 07:54:03;;;;;;;4.10;3.38;;;19.10;64.60;;;;;;6194705;23;20222;-87
2022/06/04 07:56:28;;;;;;;4.65;3.67;;;19.10;64.70;;;;;;6195375;23;20137;-87
2022/06/04 07:58:55;;;;;;;4.45;3.70;;;19.10;64.70;;;;;;6169969;23;20515;-87
2022/06/04 08:01:22;;;;;;;5.75;3.78;;;19.10;64.80;;;;;;6194899;23;20583;-87
2022/06/04 08:03:49;;;;;;;4.53;3.78;;;19.10;64.90;;;;;;6194664;23;20643;-88
2022/06/04 08:06:17;;;;;;;4.50;3.78;;;19.20;64.90;;;;;;6220212;23;20134;-87
2022/06/04 08:08:44;;;;;;;4.50;3.47;;;19.10;65.70;;;;;;6171061;23;20141;-87
2022/06/04 08:13:51;;;;;;;4.00;3.30;;;19.20;64.70;;;;;;6223299;23;20133;-87
2022/06/04 08:16:16;;;;;;;4.03;3.47;;;19.10;64.70;;;;;;6170118;23;20227;-87
2022/06/04 08:18:42;;;;;;;4.20;3.65;;;19.10;64.80;;;;;;6169810;23;20577;-87
2022/06/04 08:21:08;;;;;;;4.55;3.65;;;19.10;64.70;;;;;;6219750;23;20133;-87
2022/06/04 08:23:34;;;;;;;5.20;3.63;;;19.20;64.60;;;;;;6170295;23;20199;-87
2022/06/04 08:26:00;;;;;;;4.97;3.67;;;19.20;64.40;;;;;;6195123;23;20442;-87
2022/06/04 08:28:26;;;;;;;5.10;3.75;;;19.10;64.50;;;;;;6197363;23;20169;-87
2022/06/04 08:31:03;;;;;;;3.88;3.22;;;19.20;64.50;;;;;;6194984;23;20125;-88
2022/06/04 08:33:28;;;;;;;3.70;3.30;;;19.20;64.40;;;;;;6196692;23;20549;-87
2022/06/04 08:35:55;;;;;;;4.60;3.60;;;19.20;64.30;;;;;;6195559;23;20160;-87
2022/06/04 08:38:20;;;;;;;4.68;3.60;;;19.30;64.10;;;;;;6171012;23;20664;-86
2022/06/04 08:40:52;;;;;;;4.45;3.60;;;19.30;64.20;;;;;;6170163;23;20176;-87
2022/06/04 08:43:30;;;;;;;4.32;3.47;;;19.30;64.20;;;;;;6195395;23;20152;-88
2022/06/04 08:45:56;;;;;;;4.38;3.60;;;19.30;64.20;;;;;;6195915;23;20133;-88
2022/06/04 08:48:25;;;;;;;4.68;3.72;;;19.30;64.20;;;;;;6194238;23;20173;-86
2022/06/04 08:50:54;;;;;;;4.10;3.35;;;19.40;64.10;;;;;;6195456;23;20141;-87
2022/06/04 08:53:24;;;;;;;5.07;3.45;;;19.30;64.10;;;;;;6195871;23;20133;-87
2022/06/04 08:59:01;;;;;;;4.57;3.30;;;19.30;64.00;;;;;;6202053;23;20464;-87
2022/06/04 09:01:34;;;;;;;3.70;3.22;;;19.40;63.90;;;;;;6170459;23;20616;-86
2022/06/04 09:04:38;;;;;;;4.20;3.10;;;19.50;63.80;;;;;;6172570;23;20185;-86
2022/06/04 09:07:10;;;;;;;4.32;3.30;;;19.50;63.80;;;;;;6216123;23;20181;-85
2022/06/04 09:10:01;;;;;;;5.32;3.22;;;19.50;63.80;;;;;;6168215;23;20142;-86
2022/06/04 09:12:49;;;;;;;4.32;3.55;;;19.50;63.70;;;;;;6150412;23;20539;-86
2022/06/04 09:15:22;;;;;;;4.53;3.45;;;19.50;63.80;;;;;;6173405;23;20232;-85
2022/06/04 09:17:54;;;;;;;5.05;3.33;;;19.40;63.60;;;;;;6170324;23;20138;-87
2022/06/04 09:20:36;;;;;;;5.35;3.20;;;19.40;63.80;;;;;;6169185;23;20161;-86
2022/06/04 09:23:12;;;;;;;4.63;2.88;;;19.50;64.00;;;;;;6166898;23;20157;-87
2022/06/04 09:25:45;;;;;;;6.03;3.42;;;19.50;63.90;;;;;;6168950;23;20134;-87
2022/06/04 09:28:25;;;;;;;3.83;3.42;;;19.40;63.80;;;;;;6165406;23;20173;-86
2022/06/04 09:31:33;;;;;;;3.50;3.13;;;19.50;63.80;;;;;;6135867;23;20233;-87
2022/06/04 09:37:14;;;;;;;5.15;3.50;;;19.40;63.80;;;;;;6037758;23;20197;-86
2022/06/04 09:39:45;;;;;;;3.75;3.20;;;19.50;63.80;;;;;;5963678;23;20214;-86
2022/06/04 09:42:22;;;;;;;4.22;3.30;;;19.60;63.80;;;;;;5945240;23;20210;-85
2022/06/04 09:44:57;;;;;;;4.50;3.47;;;19.60;63.60;;;;;;5967546;23;20166;-86
2022/06/04 09:47:34;;;;;;;5.43;3.53;;;19.60;63.50;;;;;;5985444;23;20622;-86
2022/06/04 09:50:07;;;;;;;3.97;3.30;;;19.60;63.30;;;;;;5964397;23;20146;-85
2022/06/04 09:52:36;;;;;;;5.55;3.90;;;19.60;63.20;;;;;;5985166;23;20253;-87
2022/06/04 09:55:16;;;;;;;5.60;3.63;;;19.60;63.70;;;;;;5941055;23;20159;-86
2022/06/04 09:57:42;;;;;;;5.13;3.05;;;19.60;63.50;;;;;;5902096;24;20181;-88
2022/06/04 10:00:29;;;;;;;4.50;3.65;;;19.70;63.40;;;;;;5902725;24;20496;-86
2022/06/04 10:02:56;;;;;;;4.47;3.88;;;19.60;63.40;;;;;;5910153;24;20323;-87
2022/06/04 10:05:24;;;;;;;4.97;3.53;;;19.60;63.40;;;;;;5929987;24;20243;-87
2022/06/04 10:07:49;;;;;;;4.78;3.88;;;19.70;63.30;;;;;;5966009;23;20271;-86
2022/06/04 10:10:24;;;;;;;6.25;3.28;;;19.60;63.20;;;;;;6063410;23;20521;-86
2022/06/04 10:15:31;;;;;;;4.03;3.38;;;19.70;63.10;;;;;;6102185;23;20549;-86
2022/06/04 10:18:02;;;;;;;4.10;3.40;;;19.70;63.00;;;;;;6076548;23;20562;-85
2022/06/04 10:20:28;;;;;;;3.53;3.10;;;19.70;63.40;;;;;;6075458;23;20316;-86
2022/06/04 10:22:54;;;;;;;3.72;3.22;;;19.60;63.50;;;;;;6099615;23;20483;-86
2022/06/04 10:25:26;;;;;;;4.50;3.38;;;19.60;63.60;;;;;;6101550;23;20147;-86
2022/06/04 10:28:10;;;;;;;4.00;3.58;;;19.60;63.20;;;;;;6077323;23;20230;-86
2022/06/04 10:30:50;;;;;;;4.90;3.30;;;19.70;63.40;;;;;;6216344;23;20131;-87
2022/06/04 10:33:24;;;;;;;5.20;3.33;;;19.70;63.50;;;;;;6194342;23;20185;-86
2022/06/04 10:36:04;;;;;;;5.68;3.47;;;19.70;63.80;;;;;;6168837;23;20141;-86
2022/06/04 10:38:43;;;;;;;5.63;3.35;;;19.60;64.10;;;;;;6197626;23;20173;-87
2022/06/04 10:41:36;;;;;;;4.90;3.08;;;19.60;63.60;;;;;;6198127;23;20150;-87
2022/06/04 10:44:16;;;;;;;3.55;3.03;;;19.60;63.50;;;;;;6190733;23;20155;-87
2022/06/04 10:46:55;;;;;;;4.22;3.33;;;19.60;63.40;;;;;;6164115;23;20264;-87
2022/06/04 10:49:48;;;;;;;3.63;3.22;;;19.60;63.60;;;;;;6192304;23;20138;-87
2022/06/04 10:52:23;;;;;;;4.40;3.72;;;19.60;63.60;;;;;;6190556;23;20198;-87
2022/06/04 10:54:53;;;;;;;4.15;3.33;;;19.70;63.50;;;;;;6192059;23;20142;-86
2022/06/04 10:58:01;;;;;;;3.85;3.38;;;19.60;63.40;;;;;;6165577;23;20151;-86
2022/06/04 11:00:31;;;;;;;4.75;3.53;;;19.70;63.20;;;;;;6173915;23;20153;-87
2022/06/04 11:03:01;;;;;;;4.75;3.38;;;19.70;63.40;;;;;;6164796;23;20234;-87
2022/06/04 11:05:32;;;;;;;4.63;3.22;;;19.70;63.30;;;;;;6164835;23;20151;-87
2022/06/04 11:08:15;;;;;;;3.92;3.28;;;19.70;62.90;;;;;;6182789;23;20265;-87
2022/06/04 11:10:58;;;;;;;3.88;3.25;;;19.70;62.70;;;;;;6190650;23;20130;-87
2022/06/04 11:13:36;;;;;;;4.50;3.50;;;19.70;63.00;;;;;;6217455;23;20122;-87
2022/06/04 11:16:21;;;;;;;4.55;3.42;;;19.70;62.30;;;;;;6192209;23;20553;-87
2022/06/04 11:19:05;;;;;;;3.67;3.13;;;19.70;62.50;;;;;;6185801;23;20134;-87
2022/06/04 11:21:39;;;;;;;3.40;3.10;;;19.70;62.70;;;;;;6192295;23;20212;-87
2022/06/04 11:24:29;;;;;;;3.40;3.10;;;19.70;63.20;;;;;;6193657;23;20237;-87
2022/06/04 11:27:12;;;;;;;4.72;3.20;;;19.60;62.90;;;;;;6219710;23;20188;-88
2022/06/04 11:29:39;;;;;;;3.40;3.10;;;19.60;63.60;;;;;;6195498;23;20581;-87
2022/06/04 11:32:09;;;;;;;3.75;3.30;;;19.60;62.50;;;;;;6191891;23;20146;-87
2022/06/04 11:34:55;;;;;;;3.47;3.03;;;19.70;62.60;;;;;;6192106;23;20130;-87
2022/06/04 11:37:34;;;;;;;3.70;3.25;;;19.60;63.20;;;;;;6212730;23;20149;-87
2022/06/04 11:40:22;;;;;;;3.83;3.30;;;19.60;62.70;;;;;;6166204;23;20463;-87
2022/06/04 11:42:56;;;;;;;4.07;3.67;;;19.50;62.10;;;;;;6166459;23;20258;-87
2022/06/04 11:45:53;;;;;;;4.50;3.40;;;19.50;63.10;;;;;;6189407;23;20141;-86
2022/06/04 11:48:48;;;;;;;4.50;3.30;;;19.50;63.20;;;;;;6191213;23;20244;-87
2022/06/04 11:51:23;;;;;;;5.90;3.30;;;19.60;63.20;;;;;;6189555;23;20157;-86
2022/06/04 11:54:02;;;;;;;5.18;3.30;;;19.50;62.90;;;;;;6217644;23;20220;-86
2022/06/04 11:57:07;;;;;;;5.13;3.22;;;19.50;63.10;;;;;;6188978;23;20578;-87
2022/06/04 12:00:08;;;;;;;4.18;2.92;;;19.70;63.00;;;;;;6191594;23;20534;-87
2022/06/04 12:02:39;;;;;;;4.72;3.15;;;19.60;63.20;;;;;;6199741;23;20150;-87
2022/06/04 12:05:38;;;;;;;3.58;3.20;;;19.50;63.60;;;;;;6169908;23;20530;-86
2022/06/04 12:08:09;;;;;;;5.25;3.10;;;19.50;63.20;;;;;;6246306;23;20189;-86
2022/06/04 12:11:12;;;;;;;3.85;3.35;;;19.70;63.20;;;;;;6195824;23;20133;-86
2022/06/04 12:13:48;;;;;;;5.05;3.03;;;19.70;63.10;;;;;;6193966;23;20161;-87
2022/06/04 12:16:31;;;;;;;5.07;3.30;;;19.70;62.80;;;;;;6170619;23;20483;-86
2022/06/04 12:19:01;;;;;;;5.18;3.33;;;19.70;62.50;;;;;;6221491;23;20220;-87
2022/06/04 12:24:28;;;;;;;4.15;3.20;;;19.80;62.30;;;;;;6200163;23;20138;-86
2022/06/04 12:27:04;;;;;;;4.60;3.30;;;19.80;62.00;;;;;;6196505;23;20161;-87
2022/06/04 12:29:36;;;;;;;4.60;3.63;;;19.80;62.00;;;;;;6194904;23;20133;-88
2022/06/04 12:32:06;;;;;;;4.65;3.30;;;19.90;62.00;;;;;;6194512;23;20187;-86
2022/06/04 12:34:36;;;;;;;4.10;3.70;;;19.90;62.00;;;;;;6170187;23;20146;-86
2022/06/04 12:37:02;;;;;;;3.28;2.97;;;19.90;62.00;;;;;;6170541;23;20196;-87
2022/06/04 12:39:35;;;;;;;3.53;3.20;;;19.90;62.00;;;;;;6194855;23;20142;-87
2022/06/04 12:42:11;;;;;;;3.85;2.83;;;19.90;62.30;;;;;;6171571;23;20150;-87
2022/06/04 12:44:37;;;;;;;3.97;3.22;;;19.90;62.30;;;;;;6197047;23;20140;-86
2022/06/04 12:47:23;;;;;;;3.35;3.03;;;19.80;62.20;;;;;;6172662;23;20180;-86
2022/06/04 12:50:04;;;;;;;3.42;3.10;;;19.90;62.10;;;;;;6200110;23;20130;-87
2022/06/04 12:52:44;;;;;;;4.18;3.35;;;19.80;62.20;;;;;;6199177;23;20137;-86
2022/06/04 12:55:31;;;;;;;4.25;3.85;;;19.80;62.10;;;;;;6197822;23;20141;-87
2022/06/04 12:58:01;;;;;;;3.70;3.30;;;19.80;62.10;;;;;;6248904;23;20233;-87
2022/06/04 13:00:31;;;;;;;3.70;3.15;;;19.80;62.10;;;;;;6196064;23;20565;-86
2022/06/04 13:03:19;;;;;;;4.60;3.38;;;19.90;61.80;;;;;;6187664;23;20185;-87
2022/06/04 13:06:21;;;;;;;3.83;3.30;;;19.90;61.90;;;;;;6173753;23;20162;-87
2022/06/04 13:09:03;;;;;;;3.50;3.17;;;19.90;62.00;;;;;;6169426;23;20146;-87
2022/06/04 13:11:54;;;;;;;3.92;3.53;;;19.90;62.10;;;;;;6190665;23;20166;-88
2022/06/04 13:14:55;;;;;;;3.70;3.30;;;19.80;62.40;;;;;;6147346;23;20272;-88
2022/06/04 13:17:42;;;;;;;4.35;3.70;;;19.90;62.80;;;;;;6100562;23;20160;-87
2022/06/04 13:20:45;;;;;;;4.20;3.28;;;19.80;62.90;;;;;;6048949;23;20153;-87
2022/06/04 13:27:10;;;;;;;4.28;3.20;;;19.80;63.00;;;;;;6009924;23;20273;-87
2022/06/04 13:29:37;;;;;;;4.72;3.58;;;19.70;63.00;;;;;;6010747;23;20157;-87
2022/06/04 13:32:13;;;;;;;5.25;3.40;;;19.70;63.10;;;;;;5987444;23;20162;-87
2022/06/04 13:34:39;;;;;;;3.95;3.50;;;19.70;62.90;;;;;;5988638;23;20241;-88
2022/06/04 13:37:18;;;;;;;3.65;3.30;;;19.80;62.70;;;;;;5986829;23;20215;-87
2022/06/04 13:39:48;;;;;;;3.70;3.13;;;19.80;62.70;;;;;;5966062;23;20181;-87
2022/06/04 13:42:21;;;;;;;4.30;3.60;;;19.80;62.80;;;;;;5963598;23;20166;-88